createdAt,value
2022-11-24T00:00:18.633Z,5.72
2022-11-24T00:03:58.454Z,5.73
2022-11-24T00:07:55.958Z,5.71
2022-11-24T00:11:44.077Z,5.71
2022-11-24T00:15:29.680Z,5.73
2022-11-24T00:19:19.849Z,5.72
2022-11-24T00:27:00.142Z,5.69
2022-11-24T00:38:59.181Z,5.71
2022-11-24T00:42:42.898Z,5.74
2022-11-24T00:46:03.823Z,5.74
2022-11-24T00:49:12.204Z,5.72
2022-11-24T00:52:29.273Z,5.73
2022-11-24T00:55:35.902Z,5.59
2022-11-24T00:58:48.145Z,5.60
2022-11-24T01:01:53.423Z,5.59
2022-11-24T01:05:04.434Z,5.56
2022-11-24T01:08:13.154Z,5.60
2022-11-24T01:11:28.390Z,5.61
2022-11-24T01:14:39.429Z,5.64
2022-11-24T01:17:52.687Z,5.61
2022-11-24T01:21:09.846Z,5.58
2022-11-24T01:24:18.127Z,5.64
2022-11-24T01:27:29.077Z,5.59
2022-11-24T01:30:37.506Z,5.60
2022-11-24T01:33:45.011Z,5.57
2022-11-24T01:36:52.756Z,5.62
2022-11-24T01:39:57.572Z,5.62
2022-11-24T01:43:24.424Z,5.61
2022-11-24T01:46:42.248Z,5.56
2022-11-24T01:49:59.261Z,5.61
2022-11-24T01:53:08.734Z,5.55
2022-11-24T01:56:29.560Z,5.55
2022-11-24T01:59:45.510Z,5.48
2022-11-24T02:03:01.165Z,5.53
2022-11-24T02:06:20.415Z,5.53
2022-11-24T02:09:49.210Z,5.51
2022-11-24T02:12:58.216Z,5.58
2022-11-24T02:16:06.777Z,5.57
2022-11-24T02:20:02.830Z,5.62
2022-11-24T02:23:19.861Z,5.61
2022-11-24T02:26:45.679Z,5.54
2022-11-24T02:29:58.369Z,5.62
2022-11-24T02:33:09.516Z,5.63
2022-11-24T02:36:21.243Z,5.65
2022-11-24T02:39:29.444Z,5.65
2022-11-24T02:42:44.744Z,5.60
2022-11-24T02:46:02.073Z,5.68
2022-11-24T02:49:10.006Z,5.65
2022-11-24T02:52:29.726Z,5.67
2022-11-24T02:56:01.043Z,5.71
2022-11-24T02:59:13.172Z,5.73
2022-11-24T03:02:24.889Z,5.74
2022-11-24T03:05:39.617Z,5.82
2022-11-24T03:09:01.573Z,5.83
2022-11-24T03:12:20.626Z,5.84
2022-11-24T03:15:37.691Z,5.83
2022-11-24T03:18:54.440Z,5.81
2022-11-24T03:22:21.025Z,5.87
2022-11-24T03:25:36.200Z,5.85
2022-11-24T03:29:00.370Z,5.87
2022-11-24T03:32:24.969Z,5.89
2022-11-24T03:36:12.899Z,5.91
2022-11-24T03:39:40.693Z,5.82
2022-11-24T03:43:07.237Z,5.89
2022-11-24T03:46:31.014Z,5.90
2022-11-24T03:49:47.472Z,5.84
2022-11-24T03:52:54.031Z,5.83
2022-11-24T03:56:19.097Z,5.91
2022-11-24T03:59:56.142Z,5.90
2022-11-24T04:03:26.658Z,5.89
2022-11-24T04:06:32.066Z,5.88
2022-11-24T04:09:54.240Z,5.86
2022-11-24T04:13:10.430Z,5.85
2022-11-24T04:16:28.340Z,5.87
2022-11-24T04:19:51.198Z,5.85
2022-11-24T04:23:37.972Z,5.85
2022-11-24T04:26:47.447Z,5.82
2022-11-24T04:30:19.003Z,5.79
2022-11-24T04:33:45.991Z,5.79
2022-11-24T04:37:27.477Z,5.86
2022-11-24T04:40:44.662Z,5.82
2022-11-24T04:44:19.258Z,5.85
2022-11-24T04:47:29.884Z,5.87
2022-11-24T04:55:50.368Z,5.88
2022-11-24T04:59:28.764Z,5.86
2022-11-24T05:03:19.277Z,5.90
2022-11-24T05:06:42.006Z,5.94
2022-11-24T05:11:21.176Z,5.98
2022-11-24T05:14:34.588Z,5.92
2022-11-24T05:18:06.973Z,5.95
2022-11-24T05:21:28.557Z,5.93
2022-11-24T05:25:13.000Z,5.92
2022-11-24T05:28:43.353Z,5.93
2022-11-24T05:32:05.747Z,5.99
2022-11-24T05:39:40.430Z,6.01
2022-11-24T05:46:49.940Z,6.12
2022-11-24T05:50:28.464Z,6.00
2022-11-24T05:54:29.252Z,6.08
2022-11-24T06:01:59.392Z,6.08
2022-11-24T06:05:27.365Z,6.08
2022-11-24T06:08:57.793Z,6.13
2022-11-24T06:12:56.838Z,6.07
2022-11-24T06:16:28.384Z,6.02
2022-11-24T06:20:29.690Z,6.06
2022-11-24T06:23:58.772Z,6.01
2022-11-24T06:35:31.201Z,5.90
2022-11-24T06:46:41.574Z,5.87
2022-11-24T06:50:05.038Z,5.91
2022-11-24T06:53:16.327Z,5.94
2022-11-24T06:56:21.653Z,5.99
2022-11-24T06:59:26.960Z,6.07
2022-11-24T07:02:31.486Z,6.08
2022-11-24T07:05:35.854Z,6.10
2022-11-24T07:08:40.554Z,6.10
2022-11-24T07:11:45.304Z,6.04
2022-11-24T07:14:49.907Z,5.99
2022-11-24T07:17:54.760Z,5.94
2022-11-24T07:20:59.563Z,5.91
2022-11-24T07:24:04.588Z,5.89
2022-11-24T07:35:27.368Z,5.90
2022-11-24T07:38:37.502Z,5.87
2022-11-24T07:41:50.463Z,5.90
2022-11-24T07:44:58.290Z,5.86
2022-11-24T07:48:14.634Z,5.85
2022-11-24T07:51:30.219Z,5.79
2022-11-24T07:55:20.492Z,5.82
2022-11-24T07:59:22.915Z,5.77
2022-11-24T08:06:38.480Z,5.87
2022-11-24T08:09:57.478Z,5.87
2022-11-24T08:13:07.039Z,5.98
2022-11-24T08:16:46.918Z,6.05
2022-11-24T08:20:51.833Z,6.01
2022-11-24T08:25:00.018Z,5.98
2022-11-24T08:28:58.921Z,6.01
2022-11-24T08:32:22.720Z,6.00
2022-11-24T08:35:51.005Z,6.02
2022-11-24T08:39:10.481Z,6.10
2022-11-24T08:42:27.458Z,6.13
2022-11-24T08:46:30.620Z,6.17
2022-11-24T08:49:40.441Z,6.22
2022-11-24T08:52:45.674Z,6.34
2022-11-24T08:56:08.145Z,6.43
2022-11-24T08:59:32.611Z,6.47
2022-11-24T09:02:43.128Z,6.41
2022-11-24T09:06:31.514Z,6.47
2022-11-24T09:13:17.517Z,6.58
2022-11-24T09:16:44.648Z,6.66
2022-11-24T09:20:01.187Z,6.65
2022-11-24T09:23:25.299Z,6.72
2022-11-24T09:26:48.783Z,6.72
2022-11-24T09:30:16.567Z,6.68
2022-11-24T09:33:31.330Z,6.59
2022-11-24T09:37:05.918Z,6.64
2022-11-24T09:40:26.988Z,6.62
2022-11-24T09:44:32.867Z,6.67
2022-11-24T09:52:51.155Z,6.77
2022-11-24T09:57:51.871Z,6.82
2022-11-24T10:06:30.651Z,6.97
2022-11-24T10:11:49.626Z,7.02
2022-11-24T10:20:05.668Z,7.40
2022-11-24T10:39:32.955Z,7.49
2022-11-24T11:35:19.673Z,8.15
2022-11-24T11:38:50.259Z,8.20
2022-11-24T11:43:23.835Z,8.16
2022-11-24T11:47:02.386Z,8.18
2022-11-24T11:50:47.365Z,8.14
2022-11-24T11:54:45.444Z,8.05
2022-11-24T11:58:17.239Z,8.13
2022-11-24T12:01:52.674Z,8.09
2022-11-24T12:05:13.255Z,8.02
2022-11-24T12:09:19.285Z,8.11
2022-11-24T12:12:59.806Z,8.14
2022-11-24T12:16:32.575Z,8.19
2022-11-24T12:20:03.925Z,8.11
2022-11-24T12:24:55.967Z,8.16
2022-11-24T12:47:15.158Z,8.21
2022-11-24T13:30:05.437Z,8.21
2022-11-24T13:37:39.107Z,8.31
2022-11-24T13:41:37.894Z,8.32
2022-11-24T13:45:12.332Z,8.29
2022-11-24T13:49:05.085Z,8.34
2022-11-24T13:52:45.425Z,8.31
2022-11-24T13:56:11.672Z,8.33
2022-11-24T14:00:16.621Z,8.31
2022-11-24T14:03:40.175Z,8.31
2022-11-24T14:07:18.251Z,8.36
2022-11-24T14:14:35.932Z,8.23
2022-11-24T14:22:15.269Z,8.29
2022-11-24T14:25:45.003Z,8.22
2022-11-24T14:29:52.861Z,8.19
2022-11-24T14:33:28.134Z,8.22
2022-11-24T14:37:17.602Z,8.22
2022-11-24T14:41:09.614Z,8.20
2022-11-24T14:50:01.672Z,8.24
2022-11-24T14:57:44.551Z,8.33
2022-11-24T15:02:28.140Z,8.22
2022-11-24T18:31:48.764Z,7.80
2022-11-24T19:26:29.620Z,7.59
2022-11-24T20:11:59.707Z,6.99
2022-11-24T20:16:21.648Z,6.97
2022-11-24T22:13:47.895Z,6.68
